Time,TemperatureF,DewpointF,PressureIn,WindDirection,WindDirectionDegrees,WindSpeedMPH,WindSpeedGustMPH,Humidity,HourlyPrecipIn,Conditions,Clouds,dailyrainin,SoftwareType,DateUTC
2013-03-19 00:00:00,71.1,64.9,29.92,South,180,0.0,0.0,81,0.00,CLR,,0.33,WeatherDisplay:10.37,2013-03-19 04:00:00,
2013-03-19 00:01:00,71.1,64.9,29.92,South,180,0.0,0.0,81,0.00,CLR,,0.33,WeatherDisplay:10.37,2013-03-19 04:01:00,
2013-03-19 00:02:00,71.1,64.9,29.92,SSE,158,0.0,0.0,81,0.00,RA,,0.00,WeatherDisplay:10.37,2013-03-19 04:02:00,
2013-03-19 00:07:00,71.1,64.9,29.92,SSE,158,0.0,0.0,81,0.00,RA,,0.00,WeatherDisplay:10.37,2013-03-19 04:07:00,
2013-03-19 00:12:00,71.1,64.9,29.92,ESE,112,1.1,1.1,81,0.00,CLR,,0.00,WeatherDisplay:10.37,2013-03-19 04:12:00,
2013-03-19 00:17:00,71.1,64.9,29.92,SSE,158,0.0,0.3,81,0.00,CLR,,0.00,WeatherDisplay:10.37,2013-03-19 04:17:00,
2013-03-19 00:22:00,71.1,64.9,29.92,SE,135,0.0,0.1,81,0.00,CLR,,0.00,WeatherDisplay:10.37,2013-03-19 04:22:00,
2013-03-19 00:27:00,71.1,64.9,29.92,SE,135,2.3,2.3,81,0.00,CLR,,0.00,WeatherDisplay:10.37,2013-03-19 04:27:00,
2013-03-19 00:33:00,71.1,64.9,29.91,ESE,112,0.0,0.3,81,0.00,CLR,,0.00,WeatherDisplay:10.37,2013-03-19 04:33:00,
2013-03-19 00:38:00,71.1,64.9,29.91,SE,135,2.3,2.3,81,0.00,CLR,,0.00,WeatherDisplay:10.37,2013-03-19 04:38:00,
2013-03-19 00:43:00,70.9,64.8,29.91,ESE,112,2.3,2.3,81,0.00,CLR,,0.00,WeatherDisplay:10.37,2013-03-19 04:43:00,
2013-03-19 00:48:00,70.9,64.8,29.91,SE,135,2.3,2.3,81,0.00,CLR,,0.00,WeatherDisplay:10.37,2013-03-19 04:48:00,
2013-03-19 00:53:00,70.9,64.8,29.90,SE,135,2.3,2.3,81,0.00,CLR,,0.00,WeatherDisplay:10.37,2013-03-19 04:53:00,
2013-03-19 00:58:00,70.9,64.8,29.90,SW,225,2.3,2.3,81,0.00,CLR,,0.00,WeatherDisplay:10.37,2013-03-19 04:58:00,
2013-03-19 01:03:00,70.9,64.8,29.90,SE,135,1.1,1.1,81,0.00,CLR,,0.00,WeatherDisplay:10.37,2013-03-19 05:03:00,
2013-03-19 01:08:00,70.9,64.8,29.90,SE,135,2.3,2.3,81,0.00,CLR,,0.00,WeatherDisplay:10.37,2013-03-19 05:08:00,
2013-03-19 01:13:00,71.1,64.9,29.89,SE,135,2.3,2.3,81,0.00,CLR,,0.00,WeatherDisplay:10.37,2013-03-19 05:13:00,
2013-03-19 01:18:00,71.1,64.9,29.89,South,180,2.3,2.3,81,0.00,CLR,,0.00,WeatherDisplay:10.37,2013-03-19 05:18:00,
2013-03-19 01:23:00,70.9,64.8,29.89,South,180,3.5,3.5,81,0.00,CLR,,0.00,WeatherDisplay:10.37,2013-03-19 05:23:00,
2013-03-19 01:28:00,71.1,64.9,29.89,SSE,158,3.5,3.5,81,0.00,CLR,,0.00,WeatherDisplay:10.37,2013-03-19 05:28:00,
2013-03-19 01:33:00,70.9,64.8,29.89,South,180,3.5,3.5,81,0.00,CLR,,0.00,WeatherDisplay:10.37,2013-03-19 05:33:00,
2013-03-19 01:38:00,71.1,64.9,29.89,South,180,2.3,2.3,81,0.00,CLR,,0.00,WeatherDisplay:10.37,2013-03-19 05:38:00,
2013-03-19 01:43:00,71.1,64.9,29.89,SW,225,3.5,3.5,81,0.00,CLR,,0.00,WeatherDisplay:10.37,2013-03-19 05:43:00,
2013-03-19 01:48:00,71.1,65.3,29.89,SSE,158,2.3,2.3,82,0.00,CLR,,0.00,WeatherDisplay:10.37,2013-03-19 05:48:00,
2013-03-19 01:53:00,71.1,65.3,29.88,SE,135,4.6,4.6,82,0.00,CLR,,0.00,WeatherDisplay:10.37,2013-03-19 05:53:00,
2013-03-19 01:58:00,71.1,65.3,29.88,WSW,248,1.1,2.0,82,0.00,CLR,,0.00,WeatherDisplay:10.37,2013-03-19 05:58:00,
2013-03-19 02:03:00,71.1,65.3,29.88,SE,135,4.6,4.6,82,0.00,CLR,,0.00,WeatherDisplay:10.37,2013-03-19 06:03:00,
2013-03-19 02:08:00,71.1,65.3,29.88,South,180,3.5,3.5,82,0.00,CLR,,0.00,WeatherDisplay:10.37,2013-03-19 06:08:00,
2013-03-19 02:13:00,71.2,65.5,29.87,South,180,2.3,2.3,82,0.00,CLR,,0.00,WeatherDisplay:10.37,2013-03-19 06:13:00,
2013-03-19 02:18:00,71.2,65.5,29.87,East,90,1.1,1.3,82,0.00,CLR,,0.00,WeatherDisplay:10.37,2013-03-19 06:18:00,
2013-03-19 02:23:00,71.2,65.8,29.87,SE,135,1.1,1.1,83,0.00,CLR,,0.00,WeatherDisplay:10.37,2013-03-19 06:23:00,
2013-03-19 02:28:00,71.4,66.0,29.87,WSW,248,2.3,2.3,83,0.00,CLR,,0.00,WeatherDisplay:10.37,2013-03-19 06:28:00,
2013-03-19 02:33:00,71.4,66.0,29.88,West,270,2.3,2.3,83,0.00,CLR,,0.00,WeatherDisplay:10.37,2013-03-19 06:33:00,
2013-03-19 02:38:00,71.4,66.0,29.88,WSW,248,0.0,0.6,83,0.00,CLR,,0.00,WeatherDisplay:10.37,2013-03-19 06:38:00,
2013-03-19 02:43:00,71.4,66.0,29.88,NW,315,1.1,1.1,83,0.00,CLR,,0.00,WeatherDisplay:10.37,2013-03-19 06:43:00,
2013-03-19 02:48:00,71.4,66.0,29.88,SW,225,0.0,0.5,83,0.00,CLR,,0.00,WeatherDisplay:10.37,2013-03-19 06:48:00,
2013-03-19 02:53:00,71.4,66.0,29.88,WSW,248,2.3,2.3,83,0.00,CLR,,0.00,WeatherDisplay:10.37,2013-03-19 06:53:00,
2013-03-19 02:58:00,71.4,66.0,29.88,South,180,1.1,1.1,83,0.00,CLR,,0.00,WeatherDisplay:10.37,2013-03-19 06:58:00,
2013-03-19 03:03:00,71.2,65.8,29.88,South,180,3.5,3.5,83,0.00,CLR,,0.00,WeatherDisplay:10.37,2013-03-19 07:03:00,
2013-03-19 03:08:00,71.2,65.8,29.88,South,180,4.6,4.6,83,0.00,CLR,,0.00,WeatherDisplay:10.37,2013-03-19 07:08:00,
2013-03-19 03:13:00,71.1,65.6,29.88,SSW,202,2.3,2.3,83,0.00,CLR,,0.00,WeatherDisplay:10.37,2013-03-19 07:13:00,
2013-03-19 03:18:00,71.1,65.6,29.88,West,270,4.6,4.6,83,0.00,CLR,,0.00,WeatherDisplay:10.37,2013-03-19 07:18:00,
2013-03-19 03:23:00,71.1,65.6,29.88,SSE,158,4.6,4.6,83,0.00,CLR,,0.00,WeatherDisplay:10.37,2013-03-19 07:23:00,
2013-03-19 03:28:00,71.1,65.6,29.88,SSE,158,4.6,4.6,83,0.00,CLR,,0.00,WeatherDisplay:10.37,2013-03-19 07:28:00,
2013-03-19 03:33:00,71.2,66.2,29.83,SSE,158,6.9,6.9,84,0.00,CLR,,0.00,WeatherDisplay:10.37,2013-03-19 07:33:00,
2013-03-19 03:38:00,71.4,66.3,29.83,ESE,112,10.4,10.4,84,0.00,CLR,,0.00,WeatherDisplay:10.37,2013-03-19 07:38:00,
2013-03-19 03:43:00,71.2,66.2,29.83,ESE,112,4.6,5.2,84,0.00,CLR,,0.00,WeatherDisplay:10.37,2013-03-19 07:43:00,
2013-03-19 03:48:00,71.2,66.2,29.83,SSE,158,8.1,8.1,84,0.00,CLR,,0.00,WeatherDisplay:10.37,2013-03-19 07:48:00,
2013-03-19 03:53:00,71.4,66.3,29.82,SSE,158,8.1,8.1,84,0.00,CLR,,0.00,WeatherDisplay:10.37,2013-03-19 07:53:00,
2013-03-19 03:58:00,71.4,66.3,29.82,SW,225,4.6,4.6,84,0.00,CLR,,0.00,WeatherDisplay:10.37,2013-03-19 07:58:00,
2013-03-19 04:03:00,71.6,66.5,29.82,South,180,10.4,10.4,84,0.00,CLR,,0.00,WeatherDisplay:10.37,2013-03-19 08:03:00,
2013-03-19 04:08:00,71.6,66.5,29.82,SSE,158,3.5,3.9,84,0.00,CLR,,0.00,WeatherDisplay:10.37,2013-03-19 08:08:00,
2013-03-19 04:13:00,71.6,66.5,29.81,SE,135,9.2,9.2,84,0.00,CLR,,0.00,WeatherDisplay:10.37,2013-03-19 08:13:00,
2013-03-19 04:18:00,71.6,66.5,29.81,SSE,158,3.5,4.3,84,0.00,CLR,,0.00,WeatherDisplay:10.37,2013-03-19 08:18:00,
2013-03-19 04:24:00,71.6,66.5,29.81,South,180,5.8,5.8,84,0.00,CLR,,0.00,WeatherDisplay:10.37,2013-03-19 08:24:00,
2013-03-19 04:29:00,71.6,66.5,29.81,NNW,338,2.3,2.3,84,0.00,CLR,,0.00,WeatherDisplay:10.37,2013-03-19 08:29:00,
2013-03-19 04:34:00,71.8,66.7,29.82,NNW,338,1.1,1.1,84,0.00,CLR,,0.00,WeatherDisplay:10.37,2013-03-19 08:34:00,
2013-03-19 04:39:00,72.0,66.9,29.82,North,0,1.1,1.4,84,0.00,CLR,,0.00,WeatherDisplay:10.37,2013-03-19 08:39:00,
2013-03-19 04:44:00,72.1,67.0,29.82,NNE,22,6.9,6.9,84,0.00,CLR,,0.00,WeatherDisplay:10.37,2013-03-19 08:44:00,
2013-03-19 04:49:00,72.1,67.0,29.82,WSW,248,2.3,2.3,84,0.00,CLR,,0.00,WeatherDisplay:10.37,2013-03-19 08:49:00,
2013-03-19 04:54:00,72.0,66.9,29.86,SE,135,3.5,3.5,84,0.00,CLR,,0.00,WeatherDisplay:10.37,2013-03-19 08:54:00,
2013-03-19 04:59:00,72.1,67.0,29.86,NNW,338,0.0,1.3,84,0.00,CLR,,0.00,WeatherDisplay:10.37,2013-03-19 08:59:00,
2013-03-19 05:04:00,72.1,67.0,29.86,NW,315,3.5,3.5,84,0.00,CLR,,0.00,WeatherDisplay:10.37,2013-03-19 09:04:00,
2013-03-19 05:09:00,72.1,67.0,29.86,North,0,3.5,3.5,84,0.00,CLR,,0.00,WeatherDisplay:10.37,2013-03-19 09:09:00,
2013-03-19 05:14:00,72.1,66.7,29.87,NNW,338,0.0,1.3,83,0.00,CLR,,0.00,WeatherDisplay:10.37,2013-03-19 09:14:00,
2013-03-19 05:19:00,72.1,66.7,29.87,SSE,158,0.0,0.3,83,0.00,CLR,,0.00,WeatherDisplay:10.37,2013-03-19 09:19:00,
2013-03-19 05:24:00,71.8,66.3,29.87,NE,45,0.0,0.0,83,0.00,CLR,,0.00,WeatherDisplay:10.37,2013-03-19 09:24:00,
2013-03-19 05:29:00,71.6,66.2,29.87,NNW,338,0.0,0.0,83,0.00,CLR,,0.00,WeatherDisplay:10.37,2013-03-19 09:29:00,
2013-03-19 05:34:00,71.8,66.3,29.87,West,270,0.0,0.0,83,0.00,CLR,,0.00,WeatherDisplay:10.37,2013-03-19 09:34:00,
2013-03-19 05:39:00,71.6,66.2,29.87,WNW,292,0.0,0.0,83,0.00,CLR,,0.00,WeatherDisplay:10.37,2013-03-19 09:39:00,
2013-03-19 05:44:00,71.4,66.0,29.87,NW,315,0.0,0.0,83,0.00,CLR,,0.00,WeatherDisplay:10.37,2013-03-19 09:44:00,
2013-03-19 05:49:00,71.4,66.0,29.87,West,270,0.0,0.0,83,0.00,CLR,,0.00,WeatherDisplay:10.37,2013-03-19 09:49:00,
2013-03-19 05:54:00,71.6,66.2,29.88,West,270,0.0,0.0,83,0.00,CLR,,0.00,WeatherDisplay:10.37,2013-03-19 09:54:00,
2013-03-19 05:59:00,71.4,66.0,29.88,WNW,292,0.0,0.0,83,0.00,CLR,,0.00,WeatherDisplay:10.37,2013-03-19 09:59:00,
2013-03-19 06:04:00,71.4,66.0,29.88,NE,45,0.0,0.0,83,0.00,CLR,,0.00,WeatherDisplay:10.37,2013-03-19 10:04:00,
2013-03-19 06:09:00,71.4,66.0,29.88,NNW,338,0.0,0.0,83,0.00,CLR,,0.00,WeatherDisplay:10.37,2013-03-19 10:09:00,
2013-03-19 06:14:00,71.2,65.8,29.90,WSW,248,0.0,0.0,83,0.00,CLR,,0.00,WeatherDisplay:10.37,2013-03-19 10:14:00,
2013-03-19 06:19:00,71.4,66.0,29.90,West,270,0.0,0.0,83,0.00,CLR,,0.00,WeatherDisplay:10.37,2013-03-19 10:19:00,
2013-03-19 06:24:00,71.2,65.8,29.90,West,270,0.0,0.0,83,0.00,CLR,,0.00,WeatherDisplay:10.37,2013-03-19 10:24:00,
2013-03-19 06:29:00,71.2,65.8,29.90,WSW,248,0.0,0.0,83,0.00,CLR,,0.00,WeatherDisplay:10.37,2013-03-19 10:29:00,
2013-03-19 06:34:00,71.2,65.8,29.89,West,270,0.0,0.0,83,0.00,CLR,,0.00,WeatherDisplay:10.37,2013-03-19 10:34:00,
2013-03-19 06:39:00,71.1,65.6,29.89,West,270,0.0,0.0,83,0.00,CLR,,0.00,WeatherDisplay:10.37,2013-03-19 10:39:00,
2013-03-19 06:44:00,71.1,65.6,29.89,West,270,0.0,0.0,83,0.00,CLR,,0.00,WeatherDisplay:10.37,2013-03-19 10:44:00,
2013-03-19 06:50:00,71.1,65.6,29.89,WNW,292,1.1,1.1,83,0.00,CLR,,0.00,WeatherDisplay:10.37,2013-03-19 10:50:00,
2013-03-19 06:55:00,71.1,65.6,29.90,WSW,248,0.0,0.1,83,0.00,CLR,,0.00,WeatherDisplay:10.37,2013-03-19 10:55:00,
2013-03-19 07:00:00,71.1,65.6,29.90,West,270,0.0,0.1,83,0.00,CLR,,0.00,WeatherDisplay:10.37,2013-03-19 11:00:00,
2013-03-19 07:05:00,71.2,65.8,29.90,WNW,292,0.0,0.0,83,0.00,CLR,,0.00,WeatherDisplay:10.37,2013-03-19 11:05:00,
2013-03-19 07:10:00,71.4,66.0,29.90,WSW,248,0.0,0.0,83,0.00,CLR,,0.00,WeatherDisplay:10.37,2013-03-19 11:10:00,
2013-03-19 07:15:00,71.2,65.8,29.90,NW,315,1.1,1.1,83,0.00,CLR,,0.00,WeatherDisplay:10.37,2013-03-19 11:15:00,
2013-03-19 07:20:00,71.4,66.0,29.90,WSW,248,0.0,0.1,83,0.00,CLR,,0.00,WeatherDisplay:10.37,2013-03-19 11:20:00,
2013-03-19 07:25:00,71.4,66.0,29.90,West,270,0.0,0.2,83,0.00,CLR,,0.00,WeatherDisplay:10.37,2013-03-19 11:25:00,
2013-03-19 07:30:00,71.4,66.0,29.90,NW,315,2.3,2.3,83,0.00,CLR,,0.00,WeatherDisplay:10.37,2013-03-19 11:30:00,
2013-03-19 07:35:00,71.4,66.0,29.91,NW,315,0.0,0.3,83,0.00,CLR,,0.00,WeatherDisplay:10.37,2013-03-19 11:35:00,
2013-03-19 07:40:00,71.1,65.6,29.91,West,270,1.1,1.1,83,0.00,CLR,,0.00,WeatherDisplay:10.37,2013-03-19 11:40:00,
2013-03-19 07:45:00,71.2,65.8,29.91,WNW,292,0.0,0.2,83,0.00,CLR,,0.00,WeatherDisplay:10.37,2013-03-19 11:45:00,
2013-03-19 07:50:00,71.4,66.0,29.91,West,270,1.1,1.1,83,0.00,CLR,,0.00,WeatherDisplay:10.37,2013-03-19 11:50:00,
2013-03-19 07:55:00,71.4,66.0,29.91,NNE,22,1.1,1.1,83,0.00,CLR,,0.00,WeatherDisplay:10.37,2013-03-19 11:55:00,
2013-03-19 08:00:00,71.4,66.0,29.91,WSW,248,0.0,0.5,83,0.00,CLR,,0.00,WeatherDisplay:10.37,2013-03-19 12:00:00,
2013-03-19 08:05:00,71.4,66.0,29.91,West,270,2.3,2.3,83,0.00,CLR,,0.00,WeatherDisplay:10.37,2013-03-19 12:05:00,
2013-03-19 08:10:00,71.8,66.3,29.91,WNW,292,1.1,1.1,83,0.00,CLR,,0.00,WeatherDisplay:10.37,2013-03-19 12:10:00,
2013-03-19 08:15:00,71.6,66.2,29.92,WNW,292,1.1,1.1,83,0.00,CLR,,0.00,WeatherDisplay:10.37,2013-03-19 12:15:00,
2013-03-19 08:20:00,71.6,66.2,29.92,WNW,292,2.3,2.3,83,0.00,CLR,,0.00,WeatherDisplay:10.37,2013-03-19 12:20:00,
2013-03-19 08:25:00,71.6,66.2,29.92,West,270,0.0,0.5,83,0.00,CLR,,0.00,WeatherDisplay:10.37,2013-03-19 12:25:00,
2013-03-19 08:30:00,71.6,66.2,29.92,WSW,248,2.3,2.3,83,0.00,CLR,,0.00,WeatherDisplay:10.37,2013-03-19 12:30:00,
2013-03-19 08:35:00,71.6,66.2,29.93,SW,225,3.5,3.5,83,0.00,CLR,,0.00,WeatherDisplay:10.37,2013-03-19 12:35:00,
2013-03-19 08:40:00,71.6,66.2,29.93,NW,315,1.1,1.1,83,0.00,CLR,,0.00,WeatherDisplay:10.37,2013-03-19 12:40:00,
2013-03-19 08:45:00,71.6,66.2,29.93,West,270,0.0,0.8,83,0.00,CLR,,0.00,WeatherDisplay:10.37,2013-03-19 12:45:00,
2013-03-19 08:50:00,71.6,65.8,29.93,NNW,338,2.3,2.3,82,0.00,CLR,,0.00,WeatherDisplay:10.37,2013-03-19 12:50:00,
2013-03-19 08:55:00,71.6,65.8,29.94,ENE,68,2.3,2.3,82,0.00,CLR,,0.00,WeatherDisplay:10.37,2013-03-19 12:55:00,
2013-03-19 09:00:00,71.8,66.0,29.94,WSW,248,2.3,2.3,82,0.00,CLR,,0.00,WeatherDisplay:10.37,2013-03-19 13:00:00,
2013-03-19 09:05:00,71.8,66.0,29.94,WNW,292,1.1,1.1,82,0.00,CLR,,0.00,WeatherDisplay:10.37,2013-03-19 13:05:00,
2013-03-19 09:10:00,72.0,66.2,29.94,WSW,248,2.3,2.3,82,0.00,CLR,,0.00,WeatherDisplay:10.37,2013-03-19 13:10:00,
2013-03-19 09:15:00,72.1,66.3,29.93,NW,315,0.0,0.5,82,0.00,CLR,,0.00,WeatherDisplay:10.37,2013-03-19 13:15:00,
2013-03-19 09:20:00,72.1,66.3,29.93,WNW,292,1.1,1.1,82,0.00,CLR,,0.00,WeatherDisplay:10.37,2013-03-19 13:20:00,
2013-03-19 09:25:00,72.1,66.3,29.93,NW,315,0.0,0.2,82,0.00,CLR,,0.00,WeatherDisplay:10.37,2013-03-19 13:25:00,
2013-03-19 09:30:00,72.1,66.3,29.93,WSW,248,2.3,2.3,82,0.00,CLR,,0.00,WeatherDisplay:10.37,2013-03-19 13:30:00,
2013-03-19 09:35:00,72.1,66.3,29.93,SW,225,1.1,1.1,82,0.00,CLR,,0.00,WeatherDisplay:10.37,2013-03-19 13:35:00,
2013-03-19 09:40:00,72.1,66.3,29.93,SW,225,1.1,1.1,82,0.00,CLR,,0.00,WeatherDisplay:10.37,2013-03-19 13:40:00,
2013-03-19 09:45:00,72.3,66.5,29.93,SSW,202,2.3,2.3,82,0.00,CLR,,0.00,WeatherDisplay:10.37,2013-03-19 13:45:00,
2013-03-19 09:50:00,72.3,66.5,29.93,West,270,1.1,1.1,82,0.00,CLR,,0.00,WeatherDisplay:10.37,2013-03-19 13:50:00,
2013-03-19 09:55:00,72.3,66.5,29.93,NW,315,3.5,3.5,82,0.00,CLR,,0.00,WeatherDisplay:10.37,2013-03-19 13:55:00,
2013-03-19 10:00:00,72.3,66.5,29.93,NW,315,1.1,1.1,82,0.00,CLR,,0.00,WeatherDisplay:10.37,2013-03-19 14:00:00,
2013-03-19 10:05:00,72.5,66.7,29.93,NE,45,3.5,3.5,82,0.00,CLR,,0.00,WeatherDisplay:10.37,2013-03-19 14:05:00,
2013-03-19 10:10:00,72.5,66.7,29.93,WNW,292,0.0,0.5,82,0.00,CLR,,0.00,WeatherDisplay:10.37,2013-03-19 14:10:00,
2013-03-19 10:15:00,72.5,66.7,29.93,NW,315,1.1,1.1,82,0.00,CLR,,0.00,WeatherDisplay:10.37,2013-03-19 14:15:00,
2013-03-19 10:20:00,72.7,66.9,29.93,West,270,2.3,2.3,82,0.00,CLR,,0.00,WeatherDisplay:10.37,2013-03-19 14:20:00,
2013-03-19 10:25:00,72.9,66.7,29.93,NNW,338,3.5,3.5,81,0.00,CLR,,0.00,WeatherDisplay:10.37,2013-03-19 14:25:00,
2013-03-19 10:30:00,72.7,66.5,29.93,ENE,68,1.1,1.3,81,0.00,CLR,,0.00,WeatherDisplay:10.37,2013-03-19 14:30:00,
2013-03-19 10:35:00,72.9,66.7,29.92,NNW,338,1.1,1.1,81,0.00,CLR,,0.00,WeatherDisplay:10.37,2013-03-19 14:35:00,
2013-03-19 10:40:00,72.9,66.7,29.92,NNW,338,0.0,0.5,81,0.00,CLR,,0.00,WeatherDisplay:10.37,2013-03-19 14:40:00,
2013-03-19 10:45:00,73.0,66.9,29.92,South,180,2.3,2.3,81,0.00,CLR,,0.00,WeatherDisplay:10.37,2013-03-19 14:45:00,
2013-03-19 10:50:00,73.2,66.7,29.95,SSW,202,2.3,2.3,80,0.00,CLR,,0.00,WeatherDisplay:10.37,2013-03-19 14:50:00,
2013-03-19 10:55:00,73.6,67.0,29.95,NNW,338,1.1,1.1,80,0.00,CLR,,0.00,WeatherDisplay:10.37,2013-03-19 14:55:00,
2013-03-19 11:00:00,73.9,67.4,29.95,NW,315,3.5,3.5,80,0.00,CLR,,0.00,WeatherDisplay:10.37,2013-03-19 15:00:00,
2013-03-19 11:05:00,74.3,67.4,29.95,NW,315,0.0,0.7,79,0.00,CLR,,0.00,WeatherDisplay:10.37,2013-03-19 15:05:00,
2013-03-19 11:10:00,74.7,67.3,29.94,NNW,338,2.3,2.3,78,0.00,CLR,,0.00,WeatherDisplay:10.37,2013-03-19 15:10:00,
2013-03-19 11:15:00,75.2,67.9,29.94,NNW,338,2.3,2.3,78,0.00,CLR,,0.00,WeatherDisplay:10.37,2013-03-19 15:15:00,
2013-03-19 11:21:00,75.7,68.0,29.94,NNW,338,2.3,2.3,77,0.00,CLR,,0.00,WeatherDisplay:10.37,2013-03-19 15:21:00,
2013-03-19 11:26:00,75.9,67.8,29.94,NNW,338,2.3,2.3,76,0.00,CLR,,0.00,WeatherDisplay:10.37,2013-03-19 15:26:00,
2013-03-19 11:31:00,75.9,67.8,29.95,NW,315,2.3,2.3,76,0.00,CLR,,0.00,WeatherDisplay:10.37,2013-03-19 15:31:00,
2013-03-19 11:36:00,76.1,67.6,29.95,NE,45,2.3,2.3,75,0.00,CLR,,0.00,WeatherDisplay:10.37,2013-03-19 15:36:00,
2013-03-19 11:41:00,76.5,67.9,29.95,NNW,338,2.3,2.3,75,0.00,CLR,,0.00,WeatherDisplay:10.37,2013-03-19 15:41:00,
2013-03-19 11:46:00,76.8,67.9,29.95,West,270,2.3,2.3,74,0.00,CLR,,0.00,WeatherDisplay:10.37,2013-03-19 15:46:00,
2013-03-19 11:51:00,77.0,68.1,29.95,West,270,0.0,0.9,74,0.00,CLR,,0.00,WeatherDisplay:10.37,2013-03-19 15:51:00,
2013-03-19 11:56:00,77.2,67.9,29.95,NW,315,2.3,2.3,73,0.00,CLR,,0.00,WeatherDisplay:10.37,2013-03-19 15:56:00,
2013-03-19 12:01:00,77.2,67.9,29.95,West,270,0.0,1.3,73,0.00,CLR,,0.00,WeatherDisplay:10.37,2013-03-19 16:01:00,
2013-03-19 12:06:00,77.2,67.9,29.95,West,270,2.3,2.3,73,0.00,CLR,,0.00,WeatherDisplay:10.37,2013-03-19 16:06:00,
2013-03-19 12:11:00,77.2,67.9,29.95,West,270,2.3,2.3,73,0.00,CLR,,0.00,WeatherDisplay:10.37,2013-03-19 16:11:00,
2013-03-19 12:16:00,77.9,68.1,29.95,NW,315,3.5,3.5,72,0.00,CLR,,0.00,WeatherDisplay:10.37,2013-03-19 16:16:00,
2013-03-19 12:21:00,78.1,68.3,29.95,NNW,338,3.5,3.5,72,0.00,CLR,,0.00,WeatherDisplay:10.37,2013-03-19 16:21:00,
2013-03-19 12:27:00,78.4,68.3,29.95,NW,315,4.6,4.6,71,0.00,CLR,,0.00,WeatherDisplay:10.37,2013-03-19 16:27:00,
2013-03-19 12:32:00,79.0,68.8,29.95,SW,225,3.5,3.5,71,0.00,CLR,,0.00,WeatherDisplay:10.37,2013-03-19 16:32:00,
2013-03-19 12:37:00,79.0,68.4,29.95,NNW,338,1.1,1.8,70,0.00,CLR,,0.00,WeatherDisplay:10.37,2013-03-19 16:37:00,
2013-03-19 12:42:00,78.6,67.6,29.95,SW,225,3.5,3.5,69,0.00,CLR,,0.00,WeatherDisplay:10.37,2013-03-19 16:42:00,
2013-03-19 12:47:00,79.3,68.3,29.95,WNW,292,1.1,1.5,69,0.00,CLR,,0.00,WeatherDisplay:10.37,2013-03-19 16:47:00,
2013-03-19 12:52:00,79.5,68.5,29.96,WSW,248,2.3,2.3,69,0.00,CLR,,0.00,WeatherDisplay:10.37,2013-03-19 16:52:00,
2013-03-19 12:57:00,80.1,68.1,29.96,East,90,0.0,1.3,67,0.00,CLR,,0.00,WeatherDisplay:10.37,2013-03-19 16:57:00,
2013-03-19 13:02:00,80.1,67.7,29.96,NW,315,3.5,3.5,66,0.00,CLR,,0.00,WeatherDisplay:10.37,2013-03-19 17:02:00,
2013-03-19 13:07:00,79.5,66.7,29.96,NNW,338,2.3,2.3,65,0.00,CLR,,0.00,WeatherDisplay:10.37,2013-03-19 17:07:00,
2013-03-19 13:12:00,79.7,67.3,29.95,WSW,248,2.3,2.3,66,0.00,CLR,,0.00,WeatherDisplay:10.37,2013-03-19 17:12:00,
2013-03-19 13:17:00,80.2,67.4,29.95,SW,225,6.9,6.9,65,0.00,CLR,,0.00,WeatherDisplay:10.37,2013-03-19 17:17:00,
2013-03-19 13:22:00,80.6,67.3,29.95,West,270,3.5,3.5,64,0.00,CLR,,0.00,WeatherDisplay:10.37,2013-03-19 17:22:00,
2013-03-19 13:27:00,80.2,67.0,29.95,South,180,0.0,1.5,64,0.00,CLR,,0.00,WeatherDisplay:10.37,2013-03-19 17:27:00,
2013-03-19 13:32:00,80.2,67.0,29.94,NW,315,2.3,2.3,64,0.00,CLR,,0.00,WeatherDisplay:10.37,2013-03-19 17:32:00,
2013-03-19 13:37:00,80.6,67.3,29.94,SW,225,1.1,1.1,64,0.00,CLR,,0.00,WeatherDisplay:10.37,2013-03-19 17:37:00,
2013-03-19 13:42:00,81.1,67.3,29.94,NW,315,1.1,1.1,63,0.00,CLR,,0.00,WeatherDisplay:10.37,2013-03-19 17:42:00,
2013-03-19 13:48:00,81.0,67.2,29.94,NNE,22,1.1,1.1,63,0.00,CLR,,0.00,WeatherDisplay:10.37,2013-03-19 17:48:00,
2013-03-19 13:53:00,80.8,66.5,29.95,NNE,22,0.0,0.6,62,0.00,CLR,,0.00,WeatherDisplay:10.37,2013-03-19 17:53:00,
2013-03-19 13:58:00,80.6,66.4,29.95,NW,315,1.1,1.1,62,0.00,CLR,,0.00,WeatherDisplay:10.37,2013-03-19 17:58:00,
2013-03-19 14:03:00,81.0,67.2,29.95,NNW,338,0.0,0.3,63,0.00,CLR,,0.00,WeatherDisplay:10.37,2013-03-19 18:03:00,
2013-03-19 14:08:00,81.1,66.9,29.95,WSW,248,1.1,1.1,62,0.00,CLR,,0.00,WeatherDisplay:10.37,2013-03-19 18:08:00,
2013-03-19 14:13:00,81.5,67.7,29.93,SSW,202,0.0,0.3,63,0.00,CLR,,0.00,WeatherDisplay:10.37,2013-03-19 18:13:00,
2013-03-19 14:18:00,81.9,67.6,29.93,ENE,68,0.0,0.9,62,0.00,CLR,,0.00,WeatherDisplay:10.37,2013-03-19 18:18:00,
2013-03-19 14:23:00,81.9,67.6,29.93,WNW,292,2.3,2.3,62,0.00,CLR,,0.00,WeatherDisplay:10.37,2013-03-19 18:23:00,
2013-03-19 14:28:00,81.9,67.6,29.93,WNW,292,2.3,2.3,62,0.00,CLR,,0.00,WeatherDisplay:10.37,2013-03-19 18:28:00,
2013-03-19 14:33:00,81.7,67.4,29.93,ENE,68,3.5,3.5,62,0.00,CLR,,0.00,WeatherDisplay:10.37,2013-03-19 18:33:00,
2013-03-19 14:38:00,81.5,68.1,29.93,ENE,68,4.6,4.6,64,0.00,CLR,,0.00,WeatherDisplay:10.37,2013-03-19 18:38:00,
2013-03-19 14:43:00,80.4,67.6,29.93,NNW,338,1.1,1.5,65,0.00,CLR,,0.00,WeatherDisplay:10.37,2013-03-19 18:43:00,
2013-03-19 14:48:00,80.4,68.0,29.93,West,270,2.3,2.3,66,0.00,CLR,,0.00,WeatherDisplay:10.37,2013-03-19 18:48:00,
2013-03-19 14:53:00,80.6,68.2,29.92,NE,45,2.3,2.3,66,0.00,CLR,,0.00,WeatherDisplay:10.37,2013-03-19 18:53:00,
2013-03-19 14:58:00,80.2,67.8,29.92,North,0,2.3,2.3,66,0.00,CLR,,0.00,WeatherDisplay:10.37,2013-03-19 18:58:00,
2013-03-19 15:03:00,79.9,67.5,29.92,NE,45,3.5,3.5,66,0.00,CLR,,0.00,WeatherDisplay:10.37,2013-03-19 19:03:00,
2013-03-19 15:08:00,80.4,68.5,29.92,NNE,22,1.1,1.6,67,0.00,CLR,,0.00,WeatherDisplay:10.37,2013-03-19 19:08:00,
2013-03-19 15:13:00,80.2,68.3,29.93,NNE,22,2.3,2.3,67,0.00,CLR,,0.00,WeatherDisplay:10.37,2013-03-19 19:13:00,
2013-03-19 15:18:00,79.9,67.5,29.93,NNE,22,3.5,3.5,66,0.00,CLR,,0.00,WeatherDisplay:10.37,2013-03-19 19:18:00,
2013-03-19 15:23:00,79.7,67.3,29.93,NNE,22,0.0,0.9,66,0.00,CLR,,0.00,WeatherDisplay:10.37,2013-03-19 19:23:00,
2013-03-19 15:28:00,79.3,67.0,29.93,NNW,338,1.1,1.1,66,0.00,CLR,,0.00,WeatherDisplay:10.37,2013-03-19 19:28:00,
2013-03-19 15:33:00,79.3,67.4,29.92,NE,45,0.0,1.3,67,0.00,CLR,,0.00,WeatherDisplay:10.37,2013-03-19 19:33:00,
2013-03-19 15:38:00,79.3,67.4,29.92,ENE,68,2.3,2.3,67,0.00,CLR,,0.00,WeatherDisplay:10.37,2013-03-19 19:38:00,
2013-03-19 15:43:00,79.3,67.4,29.92,ENE,68,0.0,1.1,67,0.00,CLR,,0.00,WeatherDisplay:10.37,2013-03-19 19:43:00,
2013-03-19 15:48:00,79.0,67.1,29.92,ESE,112,3.5,3.5,67,0.00,CLR,,0.00,WeatherDisplay:10.37,2013-03-19 19:48:00,
2013-03-19 15:53:00,78.8,67.3,29.90,NE,45,2.3,2.3,68,0.00,CLR,,0.00,WeatherDisplay:10.37,2013-03-19 19:53:00,
2013-03-19 15:58:00,79.0,67.1,29.90,NNE,22,3.5,3.5,67,0.00,CLR,,0.00,WeatherDisplay:10.37,2013-03-19 19:58:00,
2013-03-19 16:03:00,79.0,67.5,29.90,ENE,68,0.0,1.7,68,0.00,CLR,,0.00,WeatherDisplay:10.37,2013-03-19 20:03:00,
2013-03-19 16:08:00,79.0,67.1,29.90,ENE,68,2.3,2.3,67,0.00,CLR,,0.00,WeatherDisplay:10.37,2013-03-19 20:08:00,
2013-03-19 16:13:00,79.5,67.6,29.90,SSE,158,4.6,4.6,67,0.00,CLR,,0.00,WeatherDisplay:10.37,2013-03-19 20:13:00,
2013-03-19 16:18:00,79.5,67.6,29.90,SE,135,3.5,3.5,67,0.00,CLR,,0.00,WeatherDisplay:10.37,2013-03-19 20:18:00,
2013-03-19 16:23:00,79.7,67.8,29.90,ENE,68,3.5,3.5,67,0.00,CLR,,0.00,WeatherDisplay:10.37,2013-03-19 20:23:00,
2013-03-19 16:28:00,79.3,67.9,29.90,ESE,112,3.5,3.5,68,0.00,CLR,,0.00,WeatherDisplay:10.37,2013-03-19 20:28:00,
2013-03-19 16:33:00,79.7,67.8,29.89,East,90,4.6,4.6,67,0.00,CLR,,0.00,WeatherDisplay:10.37,2013-03-19 20:33:00,
2013-03-19 16:38:00,79.5,67.6,29.89,ESE,112,4.6,4.6,67,0.00,CLR,,0.00,WeatherDisplay:10.37,2013-03-19 20:38:00,
2013-03-19 16:43:00,79.7,67.8,29.89,SE,135,2.3,2.5,67,0.00,CLR,,0.00,WeatherDisplay:10.37,2013-03-19 20:43:00,
2013-03-19 16:48:00,79.7,67.8,29.89,South,180,2.3,2.3,67,0.00,CLR,,0.00,WeatherDisplay:10.37,2013-03-19 20:48:00,
2013-03-19 16:53:00,79.5,67.6,29.88,SE,135,3.5,3.5,67,0.00,CLR,,0.00,WeatherDisplay:10.37,2013-03-19 20:53:00,
2013-03-19 16:58:00,79.5,67.6,29.88,East,90,2.3,2.6,67,0.00,CLR,,0.00,WeatherDisplay:10.37,2013-03-19 20:58:00,
2013-03-19 17:03:00,79.3,67.4,29.88,ESE,112,3.5,3.5,67,0.00,CLR,,0.00,WeatherDisplay:10.37,2013-03-19 21:03:00,
2013-03-19 17:09:00,79.3,67.9,29.88,SE,135,2.3,2.3,68,0.00,CLR,,0.00,WeatherDisplay:10.37,2013-03-19 21:09:00,
2013-03-19 17:14:00,79.3,67.4,29.88,SE,135,4.6,4.6,67,0.00,CLR,,0.00,WeatherDisplay:10.37,2013-03-19 21:14:00,
2013-03-19 17:19:00,79.2,67.3,29.88,SSE,158,3.5,3.5,67,0.00,CLR,,0.00,WeatherDisplay:10.37,2013-03-19 21:19:00,
2013-03-19 17:24:00,79.0,67.5,29.88,ESE,112,3.5,3.5,68,0.00,CLR,,0.00,WeatherDisplay:10.37,2013-03-19 21:24:00,
2013-03-19 17:29:00,79.0,67.5,29.88,ENE,68,2.3,2.3,68,0.00,CLR,,0.00,WeatherDisplay:10.37,2013-03-19 21:29:00,
2013-03-19 17:34:00,78.6,67.2,29.88,SE,135,2.3,2.3,68,0.00,CLR,,0.00,WeatherDisplay:10.37,2013-03-19 21:34:00,
2013-03-19 17:39:00,78.6,67.2,29.88,ESE,112,3.5,3.5,68,0.00,CLR,,0.00,WeatherDisplay:10.37,2013-03-19 21:39:00,
2013-03-19 17:44:00,78.4,67.4,29.88,East,90,2.3,2.3,69,0.00,CLR,,0.00,WeatherDisplay:10.37,2013-03-19 21:44:00,
2013-03-19 17:49:00,78.3,66.8,29.88,NNE,22,2.3,2.3,68,0.00,CLR,,0.00,WeatherDisplay:10.37,2013-03-19 21:49:00,
2013-03-19 17:54:00,78.3,66.8,29.88,SE,135,2.3,2.3,68,0.00,CLR,,0.00,WeatherDisplay:10.37,2013-03-19 21:54:00,
2013-03-19 17:59:00,78.3,67.3,29.88,East,90,2.3,2.3,69,0.00,CLR,,0.00,WeatherDisplay:10.37,2013-03-19 21:59:00,
2013-03-19 18:04:00,78.4,67.4,29.88,SE,135,2.3,2.3,69,0.00,CLR,,0.00,WeatherDisplay:10.37,2013-03-19 22:04:00,
2013-03-19 18:09:00,78.4,67.4,29.88,ENE,68,3.5,3.5,69,0.00,CLR,,0.00,WeatherDisplay:10.37,2013-03-19 22:09:00,
2013-03-19 18:14:00,78.3,67.3,29.88,ESE,112,3.5,3.5,69,0.00,CLR,,0.00,WeatherDisplay:10.37,2013-03-19 22:14:00,
2013-03-19 18:19:00,78.1,67.1,29.88,ESE,112,2.3,2.3,69,0.00,CLR,,0.00,WeatherDisplay:10.37,2013-03-19 22:19:00,
2013-03-19 18:24:00,77.9,66.9,29.88,ESE,112,0.0,1.0,69,0.00,CLR,,0.00,WeatherDisplay:10.37,2013-03-19 22:24:00,
2013-03-19 18:29:00,77.5,67.0,29.88,ESE,112,2.3,2.3,70,0.00,CLR,,0.00,WeatherDisplay:10.37,2013-03-19 22:29:00,
2013-03-19 18:34:00,77.5,67.0,29.88,West,270,2.3,2.3,70,0.00,CLR,,0.00,WeatherDisplay:10.37,2013-03-19 22:34:00,
2013-03-19 18:39:00,77.4,66.8,29.88,SSE,158,4.6,4.6,70,0.00,CLR,,0.00,WeatherDisplay:10.37,2013-03-19 22:39:00,
2013-03-19 18:44:00,77.0,66.5,29.88,ESE,112,2.3,2.3,70,0.00,CLR,,0.00,WeatherDisplay:10.37,2013-03-19 22:44:00,
2013-03-19 18:49:00,77.0,66.5,29.88,SE,135,4.6,4.6,70,0.00,CLR,,0.00,WeatherDisplay:10.37,2013-03-19 22:49:00,
2013-03-19 18:54:00,76.8,66.7,29.89,SE,135,4.6,4.6,71,0.00,CLR,,0.00,WeatherDisplay:10.37,2013-03-19 22:54:00,
2013-03-19 18:59:00,76.5,66.4,29.89,SE,135,4.6,4.6,71,0.00,CLR,,0.00,WeatherDisplay:10.37,2013-03-19 22:59:00,
2013-03-19 19:04:00,76.5,66.8,29.89,SSE,158,3.5,3.5,72,0.00,CLR,,0.00,WeatherDisplay:10.37,2013-03-19 23:04:00,
2013-03-19 19:09:00,76.1,66.4,29.89,SSE,158,3.5,3.5,72,0.00,CLR,,0.00,WeatherDisplay:10.37,2013-03-19 23:09:00,
2013-03-19 19:14:00,76.1,66.4,29.90,SSE,158,1.1,1.1,72,0.00,CLR,,0.00,WeatherDisplay:10.37,2013-03-19 23:14:00,
2013-03-19 19:19:00,75.7,66.5,29.90,South,180,2.3,2.3,73,0.00,CLR,,0.00,WeatherDisplay:10.37,2013-03-19 23:19:00,
2013-03-19 19:24:00,75.7,66.5,29.90,ESE,112,0.0,0.8,73,0.00,CLR,,0.00,WeatherDisplay:10.37,2013-03-19 23:24:00,
2013-03-19 19:29:00,75.4,66.1,29.90,SE,135,1.1,1.1,73,0.00,CLR,,0.00,WeatherDisplay:10.37,2013-03-19 23:29:00,
2013-03-19 19:34:00,75.2,66.3,29.89,SSE,158,2.3,2.3,74,0.00,CLR,,0.00,WeatherDisplay:10.37,2013-03-19 23:34:00,
2013-03-19 19:39:00,75.0,66.2,29.89,SE,135,0.0,0.3,74,0.00,CLR,,0.00,WeatherDisplay:10.37,2013-03-19 23:39:00,
2013-03-19 19:44:00,74.7,65.8,29.89,South,180,1.1,1.1,74,0.00,CLR,,0.00,WeatherDisplay:10.37,2013-03-19 23:44:00,
2013-03-19 19:49:00,74.5,66.0,29.89,South,180,0.0,0.0,75,0.00,CLR,,0.00,WeatherDisplay:10.37,2013-03-19 23:49:00,
2013-03-19 19:54:00,74.3,65.9,29.90,SSE,158,0.0,0.0,75,0.00,CLR,,0.00,WeatherDisplay:10.37,2013-03-19 23:54:00,
2013-03-19 19:59:00,74.1,65.7,29.90,SE,135,0.0,0.0,75,0.00,CLR,,0.00,WeatherDisplay:10.37,2013-03-19 23:59:00,
2013-03-19 20:04:00,73.9,65.5,29.90,SE,135,0.0,0.0,75,0.00,CLR,,0.00,WeatherDisplay:10.37,2013-03-20 00:04:00,
2013-03-19 20:09:00,73.8,65.3,29.90,SE,135,0.0,0.0,75,0.00,CLR,,0.00,WeatherDisplay:10.37,2013-03-20 00:09:00,
2013-03-19 20:14:00,73.6,65.5,29.91,SE,135,0.0,0.0,76,0.00,CLR,,0.00,WeatherDisplay:10.37,2013-03-20 00:14:00,
2013-03-19 20:19:00,73.6,65.5,29.91,SE,135,0.0,0.0,76,0.00,CLR,,0.00,WeatherDisplay:10.37,2013-03-20 00:19:00,
2013-03-19 20:24:00,73.2,65.2,29.91,SE,135,0.0,0.0,76,0.00,CLR,,0.00,WeatherDisplay:10.37,2013-03-20 00:24:00,
2013-03-19 20:29:00,73.0,65.0,29.91,SE,135,0.0,0.0,76,0.00,CLR,,0.00,WeatherDisplay:10.37,2013-03-20 00:29:00,
2013-03-19 20:34:00,73.0,65.0,29.91,SE,135,0.0,0.0,76,0.00,CLR,,0.00,WeatherDisplay:10.37,2013-03-20 00:34:00,
2013-03-19 20:39:00,72.9,65.2,29.91,SE,135,0.0,0.0,77,0.00,CLR,,0.00,WeatherDisplay:10.37,2013-03-20 00:39:00,
2013-03-19 20:44:00,72.7,65.1,29.91,SE,135,0.0,0.0,77,0.00,CLR,,0.00,WeatherDisplay:10.37,2013-03-20 00:44:00,
2013-03-19 20:49:00,72.9,65.2,29.91,SSE,158,0.0,0.0,77,0.00,CLR,,0.00,WeatherDisplay:10.37,2013-03-20 00:49:00,
2013-03-19 20:54:00,72.9,65.2,29.92,SSE,158,0.0,0.0,77,0.00,CLR,,0.00,WeatherDisplay:10.37,2013-03-20 00:54:00,
2013-03-19 20:59:00,72.7,65.1,29.92,SSE,158,0.0,0.0,77,0.00,CLR,,0.00,WeatherDisplay:10.37,2013-03-20 00:59:00,
2013-03-19 21:04:00,72.3,64.7,29.92,South,180,0.0,0.0,77,0.00,CLR,,0.00,WeatherDisplay:10.37,2013-03-20 01:04:00,
2013-03-19 21:09:00,72.5,64.9,29.92,SSE,158,0.0,0.0,77,0.00,CLR,,0.00,WeatherDisplay:10.37,2013-03-20 01:09:00,
2013-03-19 21:14:00,72.3,65.1,29.91,SSE,158,0.0,0.0,78,0.00,CLR,,0.00,WeatherDisplay:10.37,2013-03-20 01:14:00,
2013-03-19 21:19:00,72.1,64.9,29.91,SSE,158,0.0,0.0,78,0.00,CLR,,0.00,WeatherDisplay:10.37,2013-03-20 01:19:00,
2013-03-19 21:24:00,72.0,64.7,29.91,SSW,202,0.0,0.0,78,0.00,CLR,,0.00,WeatherDisplay:10.37,2013-03-20 01:24:00,
2013-03-19 21:29:00,72.1,64.9,29.91,SE,135,0.0,0.0,78,0.00,CLR,,0.00,WeatherDisplay:10.37,2013-03-20 01:29:00,
2013-03-19 21:34:00,71.8,64.5,29.91,SE,135,0.0,0.0,78,0.00,CLR,,0.00,WeatherDisplay:10.37,2013-03-20 01:34:00,
2013-03-19 21:40:00,71.8,64.5,29.91,SSE,158,0.0,0.0,78,0.00,CLR,,0.00,WeatherDisplay:10.37,2013-03-20 01:40:00,
2013-03-19 21:45:00,71.6,64.7,29.91,SE,135,0.0,0.0,79,0.00,CLR,,0.00,WeatherDisplay:10.37,2013-03-20 01:45:00,
2013-03-19 21:50:00,71.6,64.7,29.91,SE,135,0.0,0.0,79,0.00,CLR,,0.00,WeatherDisplay:10.37,2013-03-20 01:50:00,
2013-03-19 21:55:00,71.6,64.7,29.91,SSE,158,0.0,0.0,79,0.00,CLR,,0.00,WeatherDisplay:10.37,2013-03-20 01:55:00,
2013-03-19 22:00:00,71.6,64.7,29.91,SSE,158,0.0,0.0,79,0.00,CLR,,0.00,WeatherDisplay:10.37,2013-03-20 02:00:00,
2013-03-19 22:05:00,71.4,64.6,29.91,SE,135,0.0,0.0,79,0.00,CLR,,0.00,WeatherDisplay:10.37,2013-03-20 02:05:00,
2013-03-19 22:10:00,71.2,64.4,29.91,SE,135,0.0,0.0,79,0.00,CLR,,0.00,WeatherDisplay:10.37,2013-03-20 02:10:00,
2013-03-19 22:15:00,71.2,64.4,29.92,SE,135,0.0,0.0,79,0.00,CLR,,0.00,WeatherDisplay:10.37,2013-03-20 02:15:00,
2013-03-19 22:20:00,71.4,64.6,29.92,SSE,158,0.0,0.0,79,0.00,CLR,,0.00,WeatherDisplay:10.37,2013-03-20 02:20:00,
2013-03-19 22:25:00,71.2,64.4,29.92,SE,135,0.0,0.0,79,0.00,CLR,,0.00,WeatherDisplay:10.37,2013-03-20 02:25:00,
2013-03-19 22:30:00,71.1,64.2,29.92,SW,225,0.0,0.0,79,0.00,CLR,,0.00,WeatherDisplay:10.37,2013-03-20 02:30:00,
2013-03-19 22:35:00,71.1,64.2,29.92,SW,225,0.0,0.0,79,0.00,CLR,,0.00,WeatherDisplay:10.37,2013-03-20 02:35:00,
2013-03-19 22:40:00,70.9,64.0,29.92,South,180,0.0,0.0,79,0.00,CLR,,0.00,WeatherDisplay:10.37,2013-03-20 02:40:00,
2013-03-19 22:45:00,71.1,64.2,29.92,SSE,158,0.0,0.0,79,0.00,CLR,,0.00,WeatherDisplay:10.37,2013-03-20 02:45:00,
2013-03-19 22:50:00,70.9,64.0,29.92,SSE,158,0.0,0.0,79,0.00,CLR,,0.00,WeatherDisplay:10.37,2013-03-20 02:50:00,
2013-03-19 22:55:00,71.1,64.2,29.93,SSE,158,0.0,0.0,79,0.00,CLR,,0.00,WeatherDisplay:10.37,2013-03-20 02:55:00,
2013-03-19 23:00:00,70.7,63.9,29.93,SSE,158,0.0,0.0,79,0.00,CLR,,0.00,WeatherDisplay:10.37,2013-03-20 03:00:00,
2013-03-19 23:05:00,70.7,63.9,29.93,SE,135,0.0,0.0,79,0.00,CLR,,0.00,WeatherDisplay:10.37,2013-03-20 03:05:00,
2013-03-19 23:10:00,70.7,63.9,29.93,SSE,158,0.0,0.0,79,0.00,CLR,,0.00,WeatherDisplay:10.37,2013-03-20 03:10:00,
2013-03-19 23:15:00,70.5,63.7,29.93,SE,135,0.0,0.0,79,0.00,CLR,,0.00,WeatherDisplay:10.37,2013-03-20 03:15:00,
2013-03-19 23:20:00,70.7,63.9,29.93,SSE,158,0.0,0.0,79,0.00,CLR,,0.00,WeatherDisplay:10.37,2013-03-20 03:20:00,
2013-03-19 23:25:00,70.7,64.2,29.93,SE,135,0.0,0.0,80,0.00,CLR,,0.00,WeatherDisplay:10.37,2013-03-20 03:25:00,
2013-03-19 23:30:00,70.7,64.2,29.93,SE,135,0.0,0.0,80,0.00,CLR,,0.00,WeatherDisplay:10.37,2013-03-20 03:30:00,
2013-03-19 23:35:00,70.5,64.0,29.92,South,180,0.0,0.0,80,0.00,CLR,,0.00,WeatherDisplay:10.37,2013-03-20 03:35:00,
2013-03-19 23:40:00,70.3,63.9,29.92,SSE,158,0.0,0.0,80,0.00,CLR,,0.00,WeatherDisplay:10.37,2013-03-20 03:40:00,
2013-03-19 23:45:00,70.3,63.9,29.92,ESE,112,0.0,0.0,80,0.00,CLR,,0.00,WeatherDisplay:10.37,2013-03-20 03:45:00,
2013-03-19 23:50:00,70.3,63.9,29.92,ESE,112,0.0,0.0,80,0.00,CLR,,0.00,WeatherDisplay:10.37,2013-03-20 03:50:00,
2013-03-19 23:55:00,70.2,63.7,29.91,WSW,248,0.0,0.0,80,0.00,CLR,,0.00,WeatherDisplay:10.37,2013-03-20 03:55:00,